sensor_id;sensor_type;location;lat;lon;timestamp;P1;durP1;ratioP1;P2;durP2;ratioP2
485;SDS011;229;48.734;9.340;2023-01-31T00:01:07;11.93;;;7.32;;
485;SDS011;229;48.734;9.340;2023-01-31T00:03:34;15.32;;;7.60;;
485;SDS011;229;48.734;9.340;2023-01-31T00:06:14;15.65;;;7.60;;
485;SDS011;229;48.734;9.340;2023-01-31T00:08:41;11.20;;;7.63;;
485;SDS011;229;48.734;9.340;2023-01-31T00:11:09;10.30;;;6.60;;
485;SDS011;229;48.734;9.340;2023-01-31T00:13:36;13.38;;;6.80;;
485;SDS011;229;48.734;9.340;2023-01-31T00:16:04;14.30;;;7.15;;
485;SDS011;229;48.734;9.340;2023-01-31T00:18:31;11.07;;;6.50;;
485;SDS011;229;48.734;9.340;2023-01-31T00:21:06;9.80;;;6.30;;
485;SDS011;229;48.734;9.340;2023-01-31T00:23:34;16.10;;;7.68;;
485;SDS011;229;48.734;9.340;2023-01-31T00:26:08;16.52;;;7.68;;
485;SDS011;229;48.734;9.340;2023-01-31T00:28:36;9.40;;;6.13;;
485;SDS011;229;48.734;9.340;2023-01-31T00:31:03;13.82;;;6.43;;
485;SDS011;229;48.734;9.340;2023-01-31T00:33:31;12.15;;;6.53;;
485;SDS011;229;48.734;9.340;2023-01-31T00:36:01;15.82;;;6.40;;
485;SDS011;229;48.734;9.340;2023-01-31T00:38:28;15.68;;;6.75;;
485;SDS011;229;48.734;9.340;2023-01-31T00:40:57;8.27;;;5.55;;
485;SDS011;229;48.734;9.340;2023-01-31T00:43:24;12.77;;;7.03;;
485;SDS011;229;48.734;9.340;2023-01-31T00:45:51;9.65;;;5.90;;
485;SDS011;229;48.734;9.340;2023-01-31T00:48:18;9.38;;;6.40;;
485;SDS011;229;48.734;9.340;2023-01-31T00:50:45;10.25;;;6.40;;
485;SDS011;229;48.734;9.340;2023-01-31T00:53:13;16.52;;;6.25;;
485;SDS011;229;48.734;9.340;2023-01-31T00:55:41;11.73;;;6.30;;
485;SDS011;229;48.734;9.340;2023-01-31T00:58:10;13.35;;;6.70;;
485;SDS011;229;48.734;9.340;2023-01-31T01:00:37;11.30;;;6.25;;
485;SDS011;229;48.734;9.340;2023-01-31T01:03:04;14.98;;;6.40;;
485;SDS011;229;48.734;9.340;2023-01-31T01:05:31;13.68;;;7.35;;
485;SDS011;229;48.734;9.340;2023-01-31T01:07:58;14.13;;;7.35;;
485;SDS011;229;48.734;9.340;2023-01-31T01:10:26;11.50;;;7.28;;
485;SDS011;229;48.734;9.340;2023-01-31T01:12:53;14.40;;;6.95;;
485;SDS011;229;48.734;9.340;2023-01-31T01:15:21;16.50;;;6.93;;
485;SDS011;229;48.734;9.340;2023-01-31T01:17:49;9.35;;;6.85;;
485;SDS011;229;48.734;9.340;2023-01-31T01:20:16;13.50;;;6.65;;
485;SDS011;229;48.734;9.340;2023-01-31T01:22:44;11.65;;;6.75;;
485;SDS011;229;48.734;9.340;2023-01-31T01:25:11;11.82;;;6.30;;
485;SDS011;229;48.734;9.340;2023-01-31T01:27:38;8.35;;;5.80;;
485;SDS011;229;48.734;9.340;2023-01-31T01:30:06;16.17;;;6.70;;
485;SDS011;229;48.734;9.340;2023-01-31T01:32:34;15.27;;;6.35;;
485;SDS011;229;48.734;9.340;2023-01-31T01:35:02;12.73;;;5.70;;
485;SDS011;229;48.734;9.340;2023-01-31T01:37:30;15.48;;;5.90;;
485;SDS011;229;48.734;9.340;2023-01-31T01:39:57;16.42;;;6.13;;
485;SDS011;229;48.734;9.340;2023-01-31T01:42:24;11.63;;;6.68;;
485;SDS011;229;48.734;9.340;2023-01-31T01:44:52;11.52;;;6.20;;
485;SDS011;229;48.734;9.340;2023-01-31T01:47:32;17.55;;;6.78;;
485;SDS011;229;48.734;9.340;2023-01-31T01:50:02;10.93;;;5.43;;
485;SDS011;229;48.734;9.340;2023-01-31T01:52:31;14.50;;;6.15;;
485;SDS011;229;48.734;9.340;2023-01-31T01:55:01;12.60;;;6.32;;
485;SDS011;229;48.734;9.340;2023-01-31T01:57:31;11.75;;;5.65;;
485;SDS011;229;48.734;9.340;2023-01-31T02:00:00;9.35;;;5.97;;
485;SDS011;229;48.734;9.340;2023-01-31T02:02:29;13.82;;;6.60;;
485;SDS011;229;48.734;9.340;2023-01-31T02:04:56;14.73;;;5.60;;
485;SDS011;229;48.734;9.340;2023-01-31T02:07:25;13.57;;;6.25;;
485;SDS011;229;48.734;9.340;2023-01-31T02:09:53;9.80;;;5.57;;
485;SDS011;229;48.734;9.340;2023-01-31T02:12:21;9.15;;;5.13;;
485;SDS011;229;48.734;9.340;2023-01-31T02:14:49;15.70;;;6.15;;
485;SDS011;229;48.734;9.340;2023-01-31T02:17:18;9.68;;;6.15;;
485;SDS011;229;48.734;9.340;2023-01-31T02:19:49;12.68;;;5.85;;
485;SDS011;229;48.734;9.340;2023-01-31T02:22:20;16.55;;;6.53;;
485;SDS011;229;48.734;9.340;2023-01-31T02:25:11;9.90;;;5.65;;
485;SDS011;229;48.734;9.340;2023-01-31T02:27:48;10.75;;;6.03;;
485;SDS011;229;48.734;9.340;2023-01-31T02:30:34;13.35;;;6.60;;
485;SDS011;229;48.734;9.340;2023-01-31T02:33:12;9.98;;;5.43;;
485;SDS011;229;48.734;9.340;2023-01-31T02:35:43;10.20;;;5.85;;
485;SDS011;229;48.734;9.340;2023-01-31T02:38:16;13.00;;;6.28;;
485;SDS011;229;48.734;9.340;2023-01-31T02:40:45;10.13;;;6.70;;
485;SDS011;229;48.734;9.340;2023-01-31T02:43:17;13.43;;;5.75;;
485;SDS011;229;48.734;9.340;2023-01-31T02:45:47;12.15;;;5.57;;
485;SDS011;229;48.734;9.340;2023-01-31T02:48:18;13.15;;;6.30;;
485;SDS011;229;48.734;9.340;2023-01-31T02:50:50;10.45;;;6.40;;
485;SDS011;229;48.734;9.340;2023-01-31T02:53:20;9.38;;;6.10;;
485;SDS011;229;48.734;9.340;2023-01-31T02:55:49;10.25;;;6.30;;
485;SDS011;229;48.734;9.340;2023-01-31T02:58:36;11.40;;;5.70;;
485;SDS011;229;48.734;9.340;2023-01-31T03:01:04;10.93;;;5.90;;
485;SDS011;229;48.734;9.340;2023-01-31T03:03:34;12.75;;;6.13;;
485;SDS011;229;48.734;9.340;2023-01-31T03:06:12;11.93;;;6.00;;
485;SDS011;229;48.734;9.340;2023-01-31T03:09:01;18.38;;;6.00;;
485;SDS011;229;48.734;9.340;2023-01-31T03:11:30;12.05;;;6.63;;
485;SDS011;229;48.734;9.340;2023-01-31T03:14:02;14.05;;;6.05;;
485;SDS011;229;48.734;9.340;2023-01-31T03:16:34;12.27;;;5.82;;
485;SDS011;229;48.734;9.340;2023-01-31T03:19:21;9.27;;;5.20;;
485;SDS011;229;48.734;9.340;2023-01-31T03:21:51;12.27;;;6.13;;
485;SDS011;229;48.734;9.340;2023-01-31T03:24:21;15.82;;;5.80;;
485;SDS011;229;48.734;9.340;2023-01-31T03:26:50;13.38;;;5.28;;
485;SDS011;229;48.734;9.340;2023-01-31T03:29:18;14.27;;;6.03;;
485;SDS011;229;48.734;9.340;2023-01-31T03:31:48;11.82;;;5.97;;
485;SDS011;229;48.734;9.340;2023-01-31T03:34:16;11.77;;;5.75;;
485;SDS011;229;48.734;9.340;2023-01-31T03:36:47;11.75;;;5.93;;
485;SDS011;229;48.734;9.340;2023-01-31T03:39:18;11.00;;;5.80;;
485;SDS011;229;48.734;9.340;2023-01-31T03:41:52;16.77;;;6.47;;
485;SDS011;229;48.734;9.340;2023-01-31T03:44:23;15.73;;;6.20;;
485;SDS011;229;48.734;9.340;2023-01-31T03:46:52;13.38;;;5.95;;
485;SDS011;229;48.734;9.340;2023-01-31T03:49:20;12.98;;;6.07;;
485;SDS011;229;48.734;9.340;2023-01-31T03:51:52;15.07;;;6.20;;
485;SDS011;229;48.734;9.340;2023-01-31T03:54:21;14.27;;;6.70;;
485;SDS011;229;48.734;9.340;2023-01-31T03:56:50;14.57;;;6.60;;
485;SDS011;229;48.734;9.340;2023-01-31T03:59:19;12.88;;;6.43;;
485;SDS011;229;48.734;9.340;2023-01-31T04:01:48;14.00;;;6.85;;
485;SDS011;229;48.734;9.340;2023-01-31T04:04:18;11.73;;;6.25;;
485;SDS011;229;48.734;9.340;2023-01-31T04:06:46;16.92;;;6.38;;
485;SDS011;229;48.734;9.340;2023-01-31T04:09:15;13.98;;;6.00;;
485;SDS011;229;48.734;9.340;2023-01-31T04:11:45;12.93;;;5.80;;
485;SDS011;229;48.734;9.340;2023-01-31T04:14:13;21.40;;;6.80;;
485;SDS011;229;48.734;9.340;2023-01-31T04:16:41;13.45;;;5.93;;
485;SDS011;229;48.734;9.340;2023-01-31T04:19:08;14.88;;;6.32;;
485;SDS011;229;48.734;9.340;2023-01-31T04:21:35;11.63;;;6.55;;
485;SDS011;229;48.734;9.340;2023-01-31T04:24:02;13.57;;;7.10;;
485;SDS011;229;48.734;9.340;2023-01-31T04:26:31;15.85;;;6.28;;
485;SDS011;229;48.734;9.340;2023-01-31T04:28:58;16.05;;;7.00;;
485;SDS011;229;48.734;9.340;2023-01-31T04:31:25;12.25;;;5.60;;
485;SDS011;229;48.734;9.340;2023-01-31T04:33:53;15.32;;;6.40;;
485;SDS011;229;48.734;9.340;2023-01-31T04:36:22;14.82;;;6.85;;
485;SDS011;229;48.734;9.340;2023-01-31T04:38:49;14.43;;;6.10;;
485;SDS011;229;48.734;9.340;2023-01-31T04:41:16;12.55;;;6.75;;
485;SDS011;229;48.734;9.340;2023-01-31T04:43:44;15.55;;;6.30;;
485;SDS011;229;48.734;9.340;2023-01-31T04:46:12;13.48;;;6.07;;
485;SDS011;229;48.734;9.340;2023-01-31T04:48:39;10.23;;;6.00;;
485;SDS011;229;48.734;9.340;2023-01-31T04:51:06;11.77;;;6.50;;
485;SDS011;229;48.734;9.340;2023-01-31T04:53:33;12.00;;;6.50;;
485;SDS011;229;48.734;9.340;2023-01-31T04:56:00;21.15;;;6.75;;
485;SDS011;229;48.734;9.340;2023-01-31T04:58:28;17.88;;;6.80;;
485;SDS011;229;48.734;9.340;2023-01-31T05:00:56;15.60;;;6.85;;
485;SDS011;229;48.734;9.340;2023-01-31T05:03:24;13.15;;;6.82;;
485;SDS011;229;48.734;9.340;2023-01-31T05:05:51;15.95;;;6.82;;
485;SDS011;229;48.734;9.340;2023-01-31T05:08:18;11.05;;;6.03;;
485;SDS011;229;48.734;9.340;2023-01-31T05:10:45;17.17;;;6.88;;
485;SDS011;229;48.734;9.340;2023-01-31T05:13:12;14.95;;;6.85;;
485;SDS011;229;48.734;9.340;2023-01-31T05:15:40;17.75;;;7.32;;
485;SDS011;229;48.734;9.340;2023-01-31T05:18:08;9.68;;;5.70;;
485;SDS011;229;48.734;9.340;2023-01-31T05:20:36;12.50;;;6.13;;
485;SDS011;229;48.734;9.340;2023-01-31T05:23:05;15.98;;;6.22;;
485;SDS011;229;48.734;9.340;2023-01-31T05:25:33;16.83;;;7.10;;
485;SDS011;229;48.734;9.340;2023-01-31T05:28:00;10.55;;;6.00;;
485;SDS011;229;48.734;9.340;2023-01-31T05:30:27;17.33;;;7.00;;
485;SDS011;229;48.734;9.340;2023-01-31T05:32:55;13.13;;;7.57;;
485;SDS011;229;48.734;9.340;2023-01-31T05:35:23;14.93;;;6.93;;
485;SDS011;229;48.734;9.340;2023-01-31T05:37:51;16.38;;;7.10;;
485;SDS011;229;48.734;9.340;2023-01-31T05:40:19;17.85;;;6.47;;
485;SDS011;229;48.734;9.340;2023-01-31T05:42:49;11.25;;;5.88;;
485;SDS011;229;48.734;9.340;2023-01-31T05:45:16;9.27;;;5.95;;
485;SDS011;229;48.734;9.340;2023-01-31T05:47:44;10.20;;;6.65;;
485;SDS011;229;48.734;9.340;2023-01-31T05:50:12;12.13;;;6.03;;
485;SDS011;229;48.734;9.340;2023-01-31T05:52:40;13.88;;;6.50;;
485;SDS011;229;48.734;9.340;2023-01-31T05:55:08;13.65;;;7.13;;
485;SDS011;229;48.734;9.340;2023-01-31T05:57:35;13.93;;;7.28;;
485;SDS011;229;48.734;9.340;2023-01-31T06:00:02;15.80;;;7.53;;
485;SDS011;229;48.734;9.340;2023-01-31T06:02:30;13.43;;;7.05;;
485;SDS011;229;48.734;9.340;2023-01-31T06:04:57;11.13;;;6.60;;
485;SDS011;229;48.734;9.340;2023-01-31T06:07:24;14.98;;;7.13;;
485;SDS011;229;48.734;9.340;2023-01-31T06:09:53;12.55;;;6.78;;
485;SDS011;229;48.734;9.340;2023-01-31T06:12:20;13.85;;;6.75;;
485;SDS011;229;48.734;9.340;2023-01-31T06:14:47;13.27;;;7.35;;
485;SDS011;229;48.734;9.340;2023-01-31T06:17:14;11.75;;;6.35;;
485;SDS011;229;48.734;9.340;2023-01-31T06:19:41;29.48;;;7.95;;
485;SDS011;229;48.734;9.340;2023-01-31T06:22:09;14.73;;;6.78;;
485;SDS011;229;48.734;9.340;2023-01-31T06:24:36;10.20;;;6.78;;
485;SDS011;229;48.734;9.340;2023-01-31T06:27:04;12.57;;;7.15;;
485;SDS011;229;48.734;9.340;2023-01-31T06:29:31;9.52;;;6.70;;
485;SDS011;229;48.734;9.340;2023-01-31T06:31:59;10.82;;;6.45;;
485;SDS011;229;48.734;9.340;2023-01-31T06:34:26;13.70;;;6.90;;
485;SDS011;229;48.734;9.340;2023-01-31T06:36:53;14.23;;;7.40;;
485;SDS011;229;48.734;9.340;2023-01-31T06:39:20;14.38;;;7.30;;
485;SDS011;229;48.734;9.340;2023-01-31T06:41:48;12.90;;;7.32;;
485;SDS011;229;48.734;9.340;2023-01-31T06:44:16;13.88;;;8.07;;
485;SDS011;229;48.734;9.340;2023-01-31T06:46:43;18.38;;;8.25;;
485;SDS011;229;48.734;9.340;2023-01-31T06:49:11;14.95;;;8.35;;
485;SDS011;229;48.734;9.340;2023-01-31T06:51:38;15.88;;;9.35;;
485;SDS011;229;48.734;9.340;2023-01-31T06:54:05;13.77;;;8.55;;
485;SDS011;229;48.734;9.340;2023-01-31T06:56:32;13.30;;;8.63;;
485;SDS011;229;48.734;9.340;2023-01-31T06:59:00;13.98;;;8.65;;
485;SDS011;229;48.734;9.340;2023-01-31T07:01:28;18.00;;;8.40;;
485;SDS011;229;48.734;9.340;2023-01-31T07:03:55;14.00;;;7.25;;
485;SDS011;229;48.734;9.340;2023-01-31T07:06:23;16.13;;;8.70;;
485;SDS011;229;48.734;9.340;2023-01-31T07:08:50;11.85;;;8.38;;
485;SDS011;229;48.734;9.340;2023-01-31T07:11:17;16.90;;;8.50;;
485;SDS011;229;48.734;9.340;2023-01-31T07:13:44;20.58;;;9.00;;
485;SDS011;229;48.734;9.340;2023-01-31T07:16:12;13.35;;;8.80;;
485;SDS011;229;48.734;9.340;2023-01-31T07:18:42;14.90;;;8.50;;
485;SDS011;229;48.734;9.340;2023-01-31T07:21:09;13.77;;;8.60;;
485;SDS011;229;48.734;9.340;2023-01-31T07:23:36;12.75;;;7.78;;
485;SDS011;229;48.734;9.340;2023-01-31T07:26:03;15.48;;;8.45;;
485;SDS011;229;48.734;9.340;2023-01-31T07:28:31;14.88;;;9.02;;
485;SDS011;229;48.734;9.340;2023-01-31T07:31:05;14.13;;;8.90;;
485;SDS011;229;48.734;9.340;2023-01-31T07:33:34;18.80;;;9.07;;
485;SDS011;229;48.734;9.340;2023-01-31T07:36:04;19.50;;;9.27;;
485;SDS011;229;48.734;9.340;2023-01-31T07:38:32;10.73;;;7.80;;
485;SDS011;229;48.734;9.340;2023-01-31T07:40:59;20.70;;;9.23;;
485;SDS011;229;48.734;9.340;2023-01-31T07:43:27;17.02;;;8.60;;
485;SDS011;229;48.734;9.340;2023-01-31T07:45:54;15.77;;;7.68;;
485;SDS011;229;48.734;9.340;2023-01-31T07:48:22;11.43;;;7.80;;
485;SDS011;229;48.734;9.340;2023-01-31T07:50:49;14.73;;;7.90;;
485;SDS011;229;48.734;9.340;2023-01-31T07:53:18;13.90;;;7.63;;
485;SDS011;229;48.734;9.340;2023-01-31T07:55:45;10.75;;;7.70;;
485;SDS011;229;48.734;9.340;2023-01-31T07:58:12;11.57;;;7.53;;
485;SDS011;229;48.734;9.340;2023-01-31T08:00:40;18.92;;;9.05;;
485;SDS011;229;48.734;9.340;2023-01-31T08:03:26;16.30;;;9.18;;
485;SDS011;229;48.734;9.340;2023-01-31T08:06:00;19.83;;;9.75;;
485;SDS011;229;48.734;9.340;2023-01-31T08:08:29;19.15;;;9.68;;
485;SDS011;229;48.734;9.340;2023-01-31T08:10:56;15.85;;;8.85;;
485;SDS011;229;48.734;9.340;2023-01-31T08:13:24;12.32;;;8.65;;
485;SDS011;229;48.734;9.340;2023-01-31T08:15:52;15.18;;;8.38;;
485;SDS011;229;48.734;9.340;2023-01-31T08:18:19;13.23;;;7.60;;
485;SDS011;229;48.734;9.340;2023-01-31T08:20:46;13.13;;;8.60;;
485;SDS011;229;48.734;9.340;2023-01-31T08:23:14;23.80;;;9.05;;
485;SDS011;229;48.734;9.340;2023-01-31T08:25:42;19.27;;;9.02;;
485;SDS011;229;48.734;9.340;2023-01-31T08:28:09;12.40;;;8.45;;
485;SDS011;229;48.734;9.340;2023-01-31T08:30:38;12.25;;;7.88;;
485;SDS011;229;48.734;9.340;2023-01-31T08:33:05;12.45;;;8.55;;
485;SDS011;229;48.734;9.340;2023-01-31T08:35:32;16.42;;;8.10;;
485;SDS011;229;48.734;9.340;2023-01-31T08:38:00;15.70;;;8.82;;
485;SDS011;229;48.734;9.340;2023-01-31T08:40:27;12.43;;;8.48;;
485;SDS011;229;48.734;9.340;2023-01-31T08:42:56;13.75;;;7.60;;
485;SDS011;229;48.734;9.340;2023-01-31T08:45:24;8.82;;;7.90;;
485;SDS011;229;48.734;9.340;2023-01-31T08:47:52;14.32;;;8.77;;
485;SDS011;229;48.734;9.340;2023-01-31T08:50:20;12.60;;;7.82;;
485;SDS011;229;48.734;9.340;2023-01-31T08:52:51;14.43;;;9.45;;
485;SDS011;229;48.734;9.340;2023-01-31T08:55:18;13.80;;;8.40;;
485;SDS011;229;48.734;9.340;2023-01-31T08:57:46;13.82;;;8.82;;
485;SDS011;229;48.734;9.340;2023-01-31T09:00:15;14.25;;;9.07;;
485;SDS011;229;48.734;9.340;2023-01-31T09:02:42;13.20;;;7.38;;
485;SDS011;229;48.734;9.340;2023-01-31T09:05:11;16.80;;;8.30;;
485;SDS011;229;48.734;9.340;2023-01-31T09:07:38;13.25;;;8.18;;
485;SDS011;229;48.734;9.340;2023-01-31T09:10:05;15.57;;;7.70;;
485;SDS011;229;48.734;9.340;2023-01-31T09:12:32;19.10;;;9.25;;
485;SDS011;229;48.734;9.340;2023-01-31T09:15:00;10.95;;;7.55;;
485;SDS011;229;48.734;9.340;2023-01-31T09:17:29;13.30;;;8.15;;
485;SDS011;229;48.734;9.340;2023-01-31T09:19:56;13.90;;;8.00;;
485;SDS011;229;48.734;9.340;2023-01-31T09:22:23;15.18;;;8.10;;
485;SDS011;229;48.734;9.340;2023-01-31T09:24:50;20.40;;;8.63;;
485;SDS011;229;48.734;9.340;2023-01-31T09:27:17;11.05;;;7.70;;
485;SDS011;229;48.734;9.340;2023-01-31T09:29:45;11.55;;;7.88;;
485;SDS011;229;48.734;9.340;2023-01-31T09:32:12;15.20;;;7.00;;
485;SDS011;229;48.734;9.340;2023-01-31T09:34:40;16.38;;;7.90;;
485;SDS011;229;48.734;9.340;2023-01-31T09:37:07;11.75;;;7.55;;
485;SDS011;229;48.734;9.340;2023-01-31T09:39:35;11.40;;;6.97;;
485;SDS011;229;48.734;9.340;2023-01-31T09:42:05;17.60;;;8.23;;
485;SDS011;229;48.734;9.340;2023-01-31T09:44:36;13.38;;;7.57;;
485;SDS011;229;48.734;9.340;2023-01-31T09:47:06;10.98;;;7.50;;
485;SDS011;229;48.734;9.340;2023-01-31T09:49:37;16.65;;;9.02;;
485;SDS011;229;48.734;9.340;2023-01-31T09:52:09;12.18;;;7.32;;
485;SDS011;229;48.734;9.340;2023-01-31T09:54:39;14.07;;;7.22;;
485;SDS011;229;48.734;9.340;2023-01-31T09:57:11;14.60;;;7.20;;
485;SDS011;229;48.734;9.340;2023-01-31T09:59:43;19.77;;;7.93;;
485;SDS011;229;48.734;9.340;2023-01-31T10:02:28;21.30;;;7.63;;
485;SDS011;229;48.734;9.340;2023-01-31T10:05:01;9.50;;;7.20;;
485;SDS011;229;48.734;9.340;2023-01-31T10:07:31;20.70;;;8.15;;
485;SDS011;229;48.734;9.340;2023-01-31T10:10:02;15.27;;;7.40;;
485;SDS011;229;48.734;9.340;2023-01-31T10:12:32;12.85;;;7.78;;
485;SDS011;229;48.734;9.340;2023-01-31T10:15:01;26.73;;;9.43;;
485;SDS011;229;48.734;9.340;2023-01-31T10:17:30;23.95;;;8.15;;
485;SDS011;229;48.734;9.340;2023-01-31T10:20:02;15.13;;;7.90;;
485;SDS011;229;48.734;9.340;2023-01-31T10:22:35;18.65;;;7.40;;
485;SDS011;229;48.734;9.340;2023-01-31T10:25:05;14.77;;;8.35;;
485;SDS011;229;48.734;9.340;2023-01-31T10:27:37;18.02;;;6.97;;
485;SDS011;229;48.734;9.340;2023-01-31T10:30:11;17.50;;;7.75;;
485;SDS011;229;48.734;9.340;2023-01-31T10:32:40;18.65;;;8.38;;
485;SDS011;229;48.734;9.340;2023-01-31T10:35:11;20.17;;;7.53;;
485;SDS011;229;48.734;9.340;2023-01-31T10:37:42;16.98;;;7.45;;
485;SDS011;229;48.734;9.340;2023-01-31T10:40:13;14.40;;;7.38;;
485;SDS011;229;48.734;9.340;2023-01-31T10:42:41;19.08;;;8.07;;
485;SDS011;229;48.734;9.340;2023-01-31T10:45:14;14.40;;;6.78;;
485;SDS011;229;48.734;9.340;2023-01-31T10:47:44;17.83;;;7.40;;
485;SDS011;229;48.734;9.340;2023-01-31T10:50:14;16.88;;;7.15;;
485;SDS011;229;48.734;9.340;2023-01-31T10:52:47;11.73;;;6.78;;
485;SDS011;229;48.734;9.340;2023-01-31T10:55:24;17.15;;;6.50;;
485;SDS011;229;48.734;9.340;2023-01-31T10:57:53;12.90;;;5.88;;
485;SDS011;229;48.734;9.340;2023-01-31T11:00:21;19.90;;;7.82;;
485;SDS011;229;48.734;9.340;2023-01-31T11:02:49;18.48;;;7.32;;
485;SDS011;229;48.734;9.340;2023-01-31T11:05:17;16.15;;;6.55;;
485;SDS011;229;48.734;9.340;2023-01-31T11:07:46;11.60;;;5.88;;
485;SDS011;229;48.734;9.340;2023-01-31T11:10:21;15.10;;;7.25;;
485;SDS011;229;48.734;9.340;2023-01-31T11:12:52;14.23;;;7.47;;
485;SDS011;229;48.734;9.340;2023-01-31T11:15:19;20.92;;;6.75;;
485;SDS011;229;48.734;9.340;2023-01-31T11:17:48;11.63;;;6.22;;
485;SDS011;229;48.734;9.340;2023-01-31T11:20:20;19.30;;;6.95;;
485;SDS011;229;48.734;9.340;2023-01-31T11:22:51;16.17;;;6.50;;
485;SDS011;229;48.734;9.340;2023-01-31T11:25:19;8.95;;;6.28;;
485;SDS011;229;48.734;9.340;2023-01-31T11:27:47;12.98;;;6.55;;
485;SDS011;229;48.734;9.340;2023-01-31T11:30:20;8.80;;;6.63;;
485;SDS011;229;48.734;9.340;2023-01-31T11:32:48;17.30;;;6.40;;
485;SDS011;229;48.734;9.340;2023-01-31T11:35:22;12.77;;;6.28;;
485;SDS011;229;48.734;9.340;2023-01-31T11:37:52;10.82;;;6.03;;
485;SDS011;229;48.734;9.340;2023-01-31T11:40:21;10.93;;;6.03;;
485;SDS011;229;48.734;9.340;2023-01-31T11:42:52;11.63;;;6.00;;
485;SDS011;229;48.734;9.340;2023-01-31T11:45:20;10.75;;;6.47;;
485;SDS011;229;48.734;9.340;2023-01-31T11:47:48;15.68;;;7.15;;
485;SDS011;229;48.734;9.340;2023-01-31T11:50:20;9.60;;;5.82;;
485;SDS011;229;48.734;9.340;2023-01-31T11:52:53;11.75;;;6.15;;
485;SDS011;229;48.734;9.340;2023-01-31T11:55:21;15.68;;;6.05;;
485;SDS011;229;48.734;9.340;2023-01-31T11:57:52;16.08;;;6.70;;
485;SDS011;229;48.734;9.340;2023-01-31T12:00:20;9.95;;;5.50;;
485;SDS011;229;48.734;9.340;2023-01-31T12:02:49;11.90;;;5.47;;
485;SDS011;229;48.734;9.340;2023-01-31T12:05:18;15.98;;;6.47;;
485;SDS011;229;48.734;9.340;2023-01-31T12:07:47;12.38;;;6.43;;
485;SDS011;229;48.734;9.340;2023-01-31T12:10:39;17.38;;;6.50;;
485;SDS011;229;48.734;9.340;2023-01-31T12:13:11;8.00;;;7.13;;
485;SDS011;229;48.734;9.340;2023-01-31T12:15:43;7.88;;;6.15;;
485;SDS011;229;48.734;9.340;2023-01-31T12:18:11;14.75;;;7.47;;
485;SDS011;229;48.734;9.340;2023-01-31T12:20:40;17.30;;;9.57;;
485;SDS011;229;48.734;9.340;2023-01-31T12:23:11;13.50;;;6.72;;
485;SDS011;229;48.734;9.340;2023-01-31T12:25:59;10.45;;;6.70;;
485;SDS011;229;48.734;9.340;2023-01-31T12:28:31;12.50;;;6.70;;
485;SDS011;229;48.734;9.340;2023-01-31T12:31:02;9.88;;;6.20;;
485;SDS011;229;48.734;9.340;2023-01-31T12:33:37;14.93;;;6.45;;
485;SDS011;229;48.734;9.340;2023-01-31T12:36:13;13.73;;;7.10;;
485;SDS011;229;48.734;9.340;2023-01-31T12:38:51;10.77;;;6.78;;
485;SDS011;229;48.734;9.340;2023-01-31T12:41:25;8.50;;;6.00;;
485;SDS011;229;48.734;9.340;2023-01-31T12:43:59;13.20;;;6.03;;
485;SDS011;229;48.734;9.340;2023-01-31T12:46:30;10.55;;;6.25;;
485;SDS011;229;48.734;9.340;2023-01-31T12:51:45;17.55;;;6.70;;
485;SDS011;229;48.734;9.340;2023-01-31T12:54:26;10.65;;;7.10;;
485;SDS011;229;48.734;9.340;2023-01-31T12:57:03;9.13;;;6.68;;
485;SDS011;229;48.734;9.340;2023-01-31T12:59:43;10.73;;;6.40;;
485;SDS011;229;48.734;9.340;2023-01-31T13:02:15;8.32;;;5.50;;
485;SDS011;229;48.734;9.340;2023-01-31T13:04:44;8.32;;;5.75;;
485;SDS011;229;48.734;9.340;2023-01-31T13:07:14;12.07;;;5.90;;
485;SDS011;229;48.734;9.340;2023-01-31T13:09:45;13.85;;;6.55;;
485;SDS011;229;48.734;9.340;2023-01-31T13:12:15;9.65;;;5.95;;
485;SDS011;229;48.734;9.340;2023-01-31T13:14:46;9.40;;;6.20;;
485;SDS011;229;48.734;9.340;2023-01-31T13:17:16;19.42;;;6.45;;
485;SDS011;229;48.734;9.340;2023-01-31T13:19:45;13.25;;;6.57;;
485;SDS011;229;48.734;9.340;2023-01-31T13:22:16;9.52;;;5.93;;
485;SDS011;229;48.734;9.340;2023-01-31T13:24:45;9.00;;;6.20;;
485;SDS011;229;48.734;9.340;2023-01-31T13:27:16;11.30;;;5.65;;
485;SDS011;229;48.734;9.340;2023-01-31T13:29:46;10.38;;;6.05;;
485;SDS011;229;48.734;9.340;2023-01-31T13:32:18;11.00;;;6.65;;
485;SDS011;229;48.734;9.340;2023-01-31T13:34:48;10.02;;;6.07;;
485;SDS011;229;48.734;9.340;2023-01-31T13:37:17;13.05;;;5.55;;
485;SDS011;229;48.734;9.340;2023-01-31T13:39:45;9.13;;;6.13;;
485;SDS011;229;48.734;9.340;2023-01-31T13:42:15;9.32;;;6.00;;
485;SDS011;229;48.734;9.340;2023-01-31T13:44:44;10.68;;;6.57;;
485;SDS011;229;48.734;9.340;2023-01-31T13:47:13;11.63;;;6.50;;
485;SDS011;229;48.734;9.340;2023-01-31T13:49:42;17.40;;;7.00;;
485;SDS011;229;48.734;9.340;2023-01-31T13:52:13;10.18;;;5.95;;
485;SDS011;229;48.734;9.340;2023-01-31T13:54:44;10.82;;;6.18;;
485;SDS011;229;48.734;9.340;2023-01-31T13:57:19;7.72;;;6.05;;
485;SDS011;229;48.734;9.340;2023-01-31T13:59:51;11.02;;;5.68;;
485;SDS011;229;48.734;9.340;2023-01-31T14:02:19;13.25;;;6.10;;
485;SDS011;229;48.734;9.340;2023-01-31T14:04:46;8.80;;;6.38;;
485;SDS011;229;48.734;9.340;2023-01-31T14:07:15;11.38;;;6.50;;
485;SDS011;229;48.734;9.340;2023-01-31T14:09:43;12.40;;;6.50;;
485;SDS011;229;48.734;9.340;2023-01-31T14:12:30;13.70;;;7.43;;
485;SDS011;229;48.734;9.340;2023-01-31T14:15:00;19.00;;;7.57;;
485;SDS011;229;48.734;9.340;2023-01-31T14:20:23;12.52;;;6.18;;
485;SDS011;229;48.734;9.340;2023-01-31T14:25:39;12.57;;;6.18;;
485;SDS011;229;48.734;9.340;2023-01-31T14:28:08;11.27;;;5.80;;
485;SDS011;229;48.734;9.340;2023-01-31T14:30:39;12.77;;;6.47;;
485;SDS011;229;48.734;9.340;2023-01-31T14:33:13;10.88;;;6.65;;
485;SDS011;229;48.734;9.340;2023-01-31T14:38:37;8.50;;;6.35;;
485;SDS011;229;48.734;9.340;2023-01-31T14:41:06;14.27;;;6.50;;
485;SDS011;229;48.734;9.340;2023-01-31T14:43:44;13.35;;;5.50;;
485;SDS011;229;48.734;9.340;2023-01-31T14:46:22;11.40;;;5.57;;
485;SDS011;229;48.734;9.340;2023-01-31T14:48:56;8.98;;;5.93;;
485;SDS011;229;48.734;9.340;2023-01-31T14:51:29;14.00;;;5.80;;
485;SDS011;229;48.734;9.340;2023-01-31T14:56:48;10.88;;;5.60;;
485;SDS011;229;48.734;9.340;2023-01-31T14:59:23;8.55;;;5.80;;
485;SDS011;229;48.734;9.340;2023-01-31T15:01:52;10.65;;;5.65;;
485;SDS011;229;48.734;9.340;2023-01-31T15:04:21;10.55;;;6.05;;
485;SDS011;229;48.734;9.340;2023-01-31T15:06:49;13.18;;;7.32;;
485;SDS011;229;48.734;9.340;2023-01-31T15:09:25;12.45;;;7.22;;
485;SDS011;229;48.734;9.340;2023-01-31T15:11:53;11.27;;;7.20;;
485;SDS011;229;48.734;9.340;2023-01-31T15:14:25;12.30;;;6.60;;
485;SDS011;229;48.734;9.340;2023-01-31T15:16:56;10.48;;;6.80;;
485;SDS011;229;48.734;9.340;2023-01-31T15:19:24;15.18;;;7.38;;
485;SDS011;229;48.734;9.340;2023-01-31T15:21:54;16.13;;;6.10;;
485;SDS011;229;48.734;9.340;2023-01-31T15:24:23;12.85;;;6.97;;
485;SDS011;229;48.734;9.340;2023-01-31T15:26:51;8.50;;;6.00;;
485;SDS011;229;48.734;9.340;2023-01-31T15:29:21;10.65;;;6.28;;
485;SDS011;229;48.734;9.340;2023-01-31T15:31:50;11.93;;;6.07;;
485;SDS011;229;48.734;9.340;2023-01-31T15:34:22;9.38;;;6.80;;
485;SDS011;229;48.734;9.340;2023-01-31T15:36:52;11.20;;;6.43;;
485;SDS011;229;48.734;9.340;2023-01-31T15:39:24;11.60;;;6.72;;
485;SDS011;229;48.734;9.340;2023-01-31T15:41:52;10.60;;;7.30;;
485;SDS011;229;48.734;9.340;2023-01-31T15:44:20;11.68;;;6.85;;
485;SDS011;229;48.734;9.340;2023-01-31T15:46:49;16.17;;;7.40;;
485;SDS011;229;48.734;9.340;2023-01-31T15:49:25;11.10;;;7.72;;
485;SDS011;229;48.734;9.340;2023-01-31T15:52:02;10.88;;;7.00;;
485;SDS011;229;48.734;9.340;2023-01-31T15:54:30;9.38;;;6.90;;
485;SDS011;229;48.734;9.340;2023-01-31T15:56:57;11.35;;;7.50;;
485;SDS011;229;48.734;9.340;2023-01-31T15:59:25;12.63;;;5.93;;
485;SDS011;229;48.734;9.340;2023-01-31T16:01:54;15.20;;;7.65;;